Time;durP1;ratioP1;P1;durP2;ratioP2;P2;SDS_P1;SDS_P2;PMS_P1;PMS_P2;Temp;Humidity;BMP_temperature;BMP_pressure;BME280_temperature;BME280_humidity;BME280_pressure;Samples;Min_cycle;Max_cycle;Signal;HPM_P1;HPM_P2
2023/01/06 00:00:38;;;;;;;34.67;8.88;;;10.10;99.90;;;;;;5038356;28;20052;-70
2023/01/06 00:03:04;;;;;;;37.38;9.52;;;10.10;99.90;;;;;;5057133;28;20486;-71
2023/01/06 00:05:31;;;;;;;35.05;8.73;;;10.20;99.90;;;;;;5077072;28;20456;-73
2023/01/06 00:07:57;;;;;;;38.30;9.18;;;10.10;99.90;;;;;;5077113;28;20048;-74
2023/01/06 00:10:23;;;;;;;38.25;9.02;;;10.20;99.90;;;;;;5057833;28;20044;-74
2023/01/06 00:12:49;;;;;;;36.40;8.95;;;10.20;99.90;;;;;;5032040;28;20095;-74
2023/01/06 00:15:16;;;;;;;35.00;8.68;;;10.20;99.90;;;;;;5040448;28;20044;-75
2023/01/06 00:17:43;;;;;;;41.88;9.43;;;10.20;99.90;;;;;;5059928;28;20055;-74
2023/01/06 00:20:09;;;;;;;31.67;7.85;;;10.20;99.90;;;;;;5019717;28;20139;-74
2023/01/06 00:22:37;;;;;;;44.05;8.88;;;10.20;99.90;;;;;;5034487;28;20068;-74
2023/01/06 00:25:03;;;;;;;37.55;8.32;;;10.20;99.90;;;;;;5055625;28;20127;-74
2023/01/06 00:27:30;;;;;;;29.88;7.47;;;10.10;99.90;;;;;;5023896;28;20095;-74
2023/01/06 00:29:56;;;;;;;40.28;8.57;;;10.20;99.90;;;;;;5022644;28;20081;-73
2023/01/06 00:32:25;;;;;;;37.47;7.53;;;10.20;99.90;;;;;;5041766;28;20136;-74
2023/01/06 00:34:50;;;;;;;39.28;7.13;;;10.20;99.90;;;;;;5018563;28;20502;-73
2023/01/06 00:37:16;;;;;;;32.00;7.32;;;10.20;99.90;;;;;;5018135;28;20072;-74
2023/01/06 00:39:42;;;;;;;28.75;7.38;;;10.20;99.90;;;;;;5025535;28;20056;-74
2023/01/06 00:42:07;;;;;;;28.45;6.35;;;10.20;99.90;;;;;;5041633;28;20040;-73
2023/01/06 00:44:36;;;;;;;20.10;5.05;;;10.20;99.90;;;;;;5023192;28;20159;-73
2023/01/06 00:47:03;;;;;;;30.58;5.78;;;10.20;99.90;;;;;;5038600;28;20093;-72
2023/01/06 00:49:29;;;;;;;32.65;6.28;;;10.20;99.90;;;;;;5038914;28;20044;-72
2023/01/06 00:51:55;;;;;;;21.48;5.10;;;10.20;99.90;;;;;;5019513;28;20051;-73
2023/01/06 00:54:25;;;;;;;23.55;5.38;;;10.30;99.90;;;;;;5054739;28;20048;-72
2023/01/06 00:56:52;;;;;;;30.90;7.05;;;10.20;99.90;;;;;;5054236;28;20391;-72
2023/01/06 00:59:38;;;;;;;20.83;5.65;;;10.30;99.90;;;;;;5024387;28;20044;-72
2023/01/06 01:02:04;;;;;;;23.13;5.72;;;10.30;99.90;;;;;;5058325;28;20040;-72
2023/01/06 01:04:30;;;;;;;24.70;5.40;;;10.30;99.90;;;;;;5016414;28;20049;-72
2023/01/06 01:06:56;;;;;;;27.85;5.50;;;10.20;99.90;;;;;;5056151;28;20730;-73
2023/01/06 01:09:30;;;;;;;17.73;5.32;;;10.30;99.90;;;;;;5036500;28;20051;-72
2023/01/06 01:12:08;;;;;;;18.58;5.35;;;10.20;99.90;;;;;;5021199;28;20081;-72
2023/01/06 01:14:45;;;;;;;21.52;5.20;;;10.30;99.90;;;;;;5056411;28;20791;-73
2023/01/06 01:17:12;;;;;;;29.48;4.68;;;10.30;99.90;;;;;;5060311;28;20040;-72
2023/01/06 01:19:38;;;;;;;19.88;4.53;;;10.30;99.90;;;;;;5042932;28;20448;-72
2023/01/06 01:22:04;;;;;;;19.05;3.83;;;10.30;99.90;;;;;;5057262;28;20052;-72
2023/01/06 01:24:30;;;;;;;15.70;3.90;;;10.30;99.90;;;;;;5079006;28;20121;-73
2023/01/06 01:26:56;;;;;;;21.15;3.75;;;10.20;99.90;;;;;;5078962;28;20044;-72
2023/01/06 01:29:25;;;;;;;16.23;3.13;;;10.20;99.90;;;;;;5060325;28;20040;-72
2023/01/06 01:31:51;;;;;;;18.17;3.80;;;10.20;99.90;;;;;;5058729;28;20044;-73
2023/01/06 01:34:17;;;;;;;14.38;3.03;;;10.20;99.90;;;;;;5046687;28;20057;-72
2023/01/06 01:36:46;;;;;;;15.55;3.45;;;10.20;99.90;;;;;;5057522;28;20044;-73
2023/01/06 01:39:14;;;;;;;21.33;4.50;;;10.20;99.90;;;;;;5070593;28;20045;-73
2023/01/06 01:41:40;;;;;;;15.95;3.30;;;10.20;99.90;;;;;;5074192;28;20040;-73
2023/01/06 01:44:43;;;;;;;15.98;4.30;;;10.10;99.90;;;;;;5057594;28;20162;-72
2023/01/06 01:47:11;;;;;;;14.25;4.15;;;10.20;99.90;;;;;;5060610;28;20047;-73
2023/01/06 01:49:40;;;;;;;14.50;3.97;;;10.10;99.90;;;;;;5059974;28;20048;-72
2023/01/06 01:52:08;;;;;;;18.50;3.95;;;10.20;99.90;;;;;;5065954;28;20044;-72
2023/01/06 01:54:35;;;;;;;16.13;4.63;;;10.20;99.90;;;;;;5079602;28;20044;-72
2023/01/06 01:57:08;;;;;;;20.05;4.47;;;10.20;99.90;;;;;;5058064;28;20055;-73
2023/01/06 01:59:37;;;;;;;16.83;4.75;;;10.10;99.90;;;;;;5074826;28;20135;-73
2023/01/06 02:02:03;;;;;;;24.00;5.38;;;10.20;99.90;;;;;;5078685;28;20047;-73
2023/01/06 02:04:33;;;;;;;15.38;6.00;;;10.10;99.90;;;;;;5064712;28;20040;-73
2023/01/06 02:07:00;;;;;;;17.75;4.93;;;10.10;99.90;;;;;;5058524;28;20462;-72
2023/01/06 02:09:30;;;;;;;13.27;4.63;;;10.10;99.90;;;;;;5067013;28;20040;-73
2023/01/06 02:11:57;;;;;;;18.85;4.72;;;10.10;99.90;;;;;;5051387;28;20723;-72
2023/01/06 02:14:25;;;;;;;14.52;4.80;;;10.20;99.90;;;;;;5026684;28;20076;-73
2023/01/06 02:17:22;;;;;;;18.48;4.90;;;10.10;99.90;;;;;;5028785;28;20136;-73
2023/01/06 02:20:29;;;;;;;20.27;5.90;;;10.10;99.90;;;;;;5044726;28;20048;-74
2023/01/06 02:23:17;;;;;;;15.52;4.63;;;10.10;99.90;;;;;;5040155;28;20579;-72
2023/01/06 02:26:00;;;;;;;14.38;4.32;;;10.10;99.90;;;;;;5063120;28;20044;-72
2023/01/06 02:28:50;;;;;;;12.32;4.22;;;10.10;99.90;;;;;;5047004;28;20533;-73
2023/01/06 02:31:44;;;;;;;16.75;4.53;;;10.10;99.90;;;;;;5055760;28;20040;-73
2023/01/06 02:34:31;;;;;;;14.07;4.20;;;10.10;99.90;;;;;;5045791;28;20059;-73
2023/01/06 02:37:00;;;;;;;16.38;3.83;;;10.10;99.90;;;;;;5057935;28;20044;-74
2023/01/06 02:39:52;;;;;;;12.07;4.43;;;10.20;99.90;;;;;;5033972;28;20064;-74
2023/01/06 02:42:35;;;;;;;17.55;3.72;;;10.10;99.90;;;;;;5018637;28;20876;-73
2023/01/06 02:45:01;;;;;;;15.52;3.72;;;10.10;99.90;;;;;;5031796;28;20056;-71
2023/01/06 02:47:44;;;;;;;14.60;3.70;;;10.10;99.90;;;;;;5050299;28;20040;-73
2023/01/06 02:50:22;;;;;;;14.02;3.53;;;10.10;99.90;;;;;;5021592;28;20626;-74
2023/01/06 02:53:13;;;;;;;11.70;3.10;;;10.10;99.90;;;;;;5034249;28;20048;-73
2023/01/06 02:55:43;;;;;;;13.82;3.30;;;10.10;99.90;;;;;;5055060;28;20032;-73
2023/01/06 02:58:28;;;;;;;11.25;3.80;;;10.10;99.90;;;;;;5026450;28;20141;-73
2023/01/06 03:01:08;;;;;;;12.25;2.95;;;10.10;99.90;;;;;;5012887;28;20437;-74
2023/01/06 03:03:36;;;;;;;14.65;3.28;;;10.10;99.90;;;;;;5052209;28;20056;-73
2023/01/06 03:06:07;;;;;;;11.88;2.60;;;10.10;99.90;;;;;;5038650;28;20047;-74
2023/01/06 03:08:35;;;;;;;7.85;2.45;;;10.10;99.90;;;;;;5040736;28;20056;-74
2023/01/06 03:11:02;;;;;;;12.73;2.85;;;10.10;99.90;;;;;;5034562;28;20054;-74
2023/01/06 03:13:40;;;;;;;14.10;2.85;;;10.00;99.90;;;;;;5041914;28;20157;-74
2023/01/06 03:16:07;;;;;;;11.48;3.33;;;10.10;99.90;;;;;;5072235;28;20060;-74
2023/01/06 03:18:35;;;;;;;8.73;3.10;;;10.10;99.90;;;;;;5057124;28;20119;-74
2023/01/06 03:21:06;;;;;;;10.00;3.38;;;10.10;99.90;;;;;;5053912;28;20046;-74
2023/01/06 03:23:34;;;;;;;10.70;3.20;;;10.10;99.90;;;;;;5055181;28;20105;-74
2023/01/06 03:26:02;;;;;;;9.13;3.13;;;10.00;99.90;;;;;;5059560;28;20056;-73
2023/01/06 03:28:28;;;;;;;9.55;3.42;;;10.10;99.90;;;;;;5049015;28;20048;-74
2023/01/06 03:31:32;;;;;;;11.80;3.72;;;10.20;99.90;;;;;;5063144;28;20047;-75
2023/01/06 03:34:21;;;;;;;13.88;4.32;;;10.10;99.90;;;;;;5059891;28;20090;-73
2023/01/06 03:37:14;;;;;;;10.02;3.42;;;10.10;99.90;;;;;;5067188;28;20062;-73
2023/01/06 03:39:49;;;;;;;9.57;3.55;;;10.10;99.90;;;;;;5065812;28;20044;-73
2023/01/06 03:45:26;;;;;;;8.38;2.78;;;10.10;99.90;;;;;;5067697;28;20548;-73
2023/01/06 03:48:00;;;;;;;15.35;3.65;;;10.10;99.90;;;;;;5045935;28;20047;-73
2023/01/06 03:50:39;;;;;;;10.57;3.63;;;10.10;99.90;;;;;;5046487;28;20400;-74
2023/01/06 03:53:33;;;;;;;10.35;3.97;;;10.10;99.90;;;;;;5076772;28;20046;-73
2023/01/06 03:56:41;;;;;;;11.63;4.18;;;10.10;99.90;;;;;;5065386;28;20397;-73
2023/01/06 03:59:13;;;;;;;11.95;4.20;;;10.10;99.90;;;;;;5065078;28;20048;-73
2023/01/06 04:01:42;;;;;;;10.48;4.50;;;10.10;99.90;;;;;;5046084;28;20112;-74
2023/01/06 04:04:08;;;;;;;11.95;4.82;;;10.10;99.90;;;;;;5079252;28;20078;-73
2023/01/06 04:06:34;;;;;;;9.45;5.13;;;10.40;99.90;;;;;;5078980;28;20044;-73
2023/01/06 04:09:00;;;;;;;12.80;5.53;;;10.10;99.90;;;;;;5059782;28;20063;-73
2023/01/06 04:14:10;;;;;;;12.15;6.65;;;10.10;99.90;;;;;;5044768;28;20055;-73
2023/01/06 04:16:35;;;;;;;13.90;6.90;;;10.10;99.90;;;;;;5025299;28;20036;-73
2023/01/06 04:19:01;;;;;;;10.13;6.28;;;10.10;99.90;;;;;;5024733;28;20416;-72
2023/01/06 04:21:27;;;;;;;14.15;5.78;;;10.10;99.90;;;;;;5021813;28;20090;-72
2023/01/06 04:23:53;;;;;;;10.23;5.75;;;10.00;99.90;;;;;;5034615;28;20550;-73
2023/01/06 04:26:19;;;;;;;14.82;5.47;;;10.10;99.90;;;;;;5042597;28;20079;-73
2023/01/06 04:28:45;;;;;;;13.10;5.55;;;10.00;99.90;;;;;;5037077;28;20087;-73
2023/01/06 04:31:11;;;;;;;11.55;5.88;;;10.10;99.90;;;;;;5016973;28;20037;-73
2023/01/06 04:33:37;;;;;;;9.93;4.82;;;10.10;99.90;;;;;;5039162;28;20493;-74
2023/01/06 04:36:03;;;;;;;11.10;4.40;;;10.00;99.90;;;;;;5055571;28;20040;-74
2023/01/06 04:38:29;;;;;;;10.13;4.15;;;10.10;99.90;;;;;;5036647;28;20047;-74
2023/01/06 04:40:55;;;;;;;7.65;3.95;;;10.10;99.90;;;;;;5039613;28;20053;-73
2023/01/06 04:43:21;;;;;;;8.55;3.72;;;10.00;99.90;;;;;;5025140;28;20438;-73
2023/01/06 04:45:46;;;;;;;9.80;3.97;;;10.10;99.90;;;;;;5016793;28;20117;-74
2023/01/06 04:48:13;;;;;;;8.57;3.45;;;10.10;99.90;;;;;;5020994;28;20087;-74
2023/01/06 04:50:39;;;;;;;7.40;3.45;;;10.10;99.90;;;;;;5023131;28;20041;-73
2023/01/06 04:53:06;;;;;;;9.15;3.33;;;10.10;99.90;;;;;;5038144;28;20044;-74
2023/01/06 04:55:32;;;;;;;6.60;3.05;;;10.10;99.90;;;;;;5053379;28;20040;-74
2023/01/06 04:57:58;;;;;;;10.93;3.05;;;10.10;99.90;;;;;;5020054;28;20168;-74
2023/01/06 05:00:24;;;;;;;6.75;2.88;;;10.10;99.90;;;;;;5029278;28;20101;-75
2023/01/06 05:02:49;;;;;;;7.50;2.92;;;10.10;99.90;;;;;;5035129;28;20101;-72
2023/01/06 05:05:16;;;;;;;8.05;3.35;;;10.20;99.90;;;;;;5057798;28;20048;-73
2023/01/06 05:07:41;;;;;;;6.43;3.20;;;10.10;99.90;;;;;;5027184;28;20071;-74
2023/01/06 05:10:09;;;;;;;7.10;3.20;;;10.10;99.90;;;;;;5022208;28;20123;-73
2023/01/06 05:12:35;;;;;;;8.90;3.00;;;10.10;99.90;;;;;;5038083;28;20041;-73
2023/01/06 05:15:01;;;;;;;7.47;3.08;;;10.10;99.90;;;;;;5076480;28;20044;-72
2023/01/06 05:17:27;;;;;;;7.90;2.88;;;10.10;99.90;;;;;;5077114;28;20047;-73
2023/01/06 05:19:53;;;;;;;6.65;3.00;;;10.20;99.90;;;;;;5057307;28;20029;-73
2023/01/06 05:22:19;;;;;;;8.40;2.88;;;10.20;99.90;;;;;;5041621;28;20044;-73
2023/01/06 05:24:45;;;;;;;8.43;3.30;;;10.20;99.90;;;;;;5059576;28;20408;-72
2023/01/06 05:27:11;;;;;;;7.18;3.10;;;10.20;99.90;;;;;;5043071;28;20127;-73
2023/01/06 05:29:37;;;;;;;8.75;3.58;;;10.20;99.90;;;;;;5077203;28;20047;-74
2023/01/06 05:32:03;;;;;;;9.05;3.08;;;10.20;99.90;;;;;;5076152;28;20047;-74
2023/01/06 05:34:29;;;;;;;9.52;2.90;;;10.20;99.90;;;;;;5072602;28;20081;-73
2023/01/06 05:36:55;;;;;;;8.38;3.20;;;10.20;99.90;;;;;;5043594;28;20497;-73
2023/01/06 05:39:21;;;;;;;6.63;3.10;;;10.10;99.90;;;;;;5040644;28;20063;-73
2023/01/06 05:41:47;;;;;;;6.20;3.05;;;10.10;99.90;;;;;;5072564;28;20059;-73
2023/01/06 05:44:13;;;;;;;7.25;3.20;;;10.20;99.90;;;;;;5076823;28;20044;-74
2023/01/06 05:46:39;;;;;;;8.13;3.38;;;10.20;99.90;;;;;;5074430;28;20216;-73
2023/01/06 05:49:04;;;;;;;12.70;3.60;;;10.10;99.90;;;;;;5057174;28;20044;-73
2023/01/06 05:51:30;;;;;;;11.93;4.10;;;10.10;99.90;;;;;;5045419;28;20057;-74
2023/01/06 05:53:56;;;;;;;9.43;4.38;;;10.00;99.90;;;;;;5072956;28;20127;-73
2023/01/06 05:56:25;;;;;;;7.15;4.30;;;10.00;99.90;;;;;;5074186;28;20040;-73
2023/01/06 05:58:53;;;;;;;10.65;5.45;;;10.00;99.90;;;;;;5042404;28;20052;-73
2023/01/06 06:01:21;;;;;;;11.02;5.50;;;10.00;99.90;;;;;;5075114;28;20036;-72
2023/01/06 06:03:47;;;;;;;13.35;5.95;;;10.00;99.90;;;;;;5057421;28;20063;-73
2023/01/06 06:06:14;;;;;;;12.02;6.78;;;10.00;99.90;;;;;;5065406;28;20516;-72
2023/01/06 06:08:39;;;;;;;9.90;6.43;;;9.90;99.90;;;;;;5061055;28;20475;-71
2023/01/06 06:11:08;;;;;;;9.98;6.70;;;9.90;99.90;;;;;;5055562;28;20056;-73
2023/01/06 06:13:34;;;;;;;9.07;6.75;;;9.90;99.90;;;;;;5072088;28;20051;-73
2023/01/06 06:16:07;;;;;;;9.32;6.60;;;9.90;99.90;;;;;;5058666;28;20514;-72
2023/01/06 06:18:35;;;;;;;11.68;6.95;;;9.80;99.90;;;;;;5029003;28;20044;-74
2023/01/06 06:21:04;;;;;;;10.50;7.47;;;9.80;99.90;;;;;;5033013;28;21430;-74
2023/01/06 06:23:30;;;;;;;14.02;6.97;;;9.80;99.90;;;;;;5039671;28;20545;-72
2023/01/06 06:25:56;;;;;;;11.73;6.65;;;9.80;99.90;;;;;;5080068;28;21094;-73
2023/01/06 06:28:22;;;;;;;10.32;7.03;;;9.80;99.90;;;;;;5043689;28;20043;-73
2023/01/06 06:30:47;;;;;;;9.70;6.95;;;9.80;99.90;;;;;;5040803;28;20048;-72
2023/01/06 06:33:13;;;;;;;9.50;5.97;;;9.80;99.90;;;;;;5044862;28;20049;-72
2023/01/06 06:35:39;;;;;;;13.70;7.88;;;9.80;99.90;;;;;;5029956;28;20056;-72
2023/01/06 06:38:05;;;;;;;12.13;6.40;;;9.80;99.90;;;;;;5033927;28;20075;-71
2023/01/06 06:40:30;;;;;;;10.25;6.40;;;9.80;99.90;;;;;;5052790;28;20040;-74
2023/01/06 06:42:56;;;;;;;9.68;5.65;;;9.70;99.90;;;;;;5034037;28;20048;-74
2023/01/06 06:45:23;;;;;;;8.07;5.50;;;9.80;99.90;;;;;;5045901;28;20562;-73
2023/01/06 06:47:54;;;;;;;10.48;5.68;;;9.70;99.90;;;;;;5034978;28;20060;-73
2023/01/06 06:50:19;;;;;;;9.30;5.65;;;9.80;99.90;;;;;;5058507;28;20076;-73
2023/01/06 06:52:45;;;;;;;10.75;5.40;;;9.80;99.90;;;;;;5034109;28;20079;-72
2023/01/06 06:55:11;;;;;;;10.48;5.43;;;9.80;99.90;;;;;;5067423;28;20071;-72
2023/01/06 06:57:37;;;;;;;9.15;5.25;;;9.90;99.90;;;;;;5048244;28;20634;-73
2023/01/06 07:00:04;;;;;;;7.35;4.72;;;9.80;99.90;;;;;;5070083;28;20135;-72
2023/01/06 07:02:29;;;;;;;8.00;4.22;;;9.70;99.90;;;;;;5067732;28;20055;-72
2023/01/06 07:04:55;;;;;;;7.65;3.83;;;9.70;99.90;;;;;;5041058;28;20056;-72
2023/01/06 07:07:21;;;;;;;7.45;3.85;;;9.80;99.90;;;;;;5045339;28;20774;-71
2023/01/06 07:09:47;;;;;;;9.45;3.85;;;9.80;99.90;;;;;;5036995;28;20059;-71
2023/01/06 07:12:13;;;;;;;9.27;3.80;;;10.20;99.90;;;;;;5053782;28;20068;-72
2023/01/06 07:14:38;;;;;;;7.57;3.42;;;9.80;99.90;;;;;;5070276;28;20425;-72
2023/01/06 07:17:04;;;;;;;5.35;3.25;;;9.80;99.90;;;;;;5052700;28;20071;-72
2023/01/06 07:19:30;;;;;;;9.57;4.10;;;10.10;99.90;;;;;;5061654;28;20063;-72
2023/01/06 07:21:56;;;;;;;6.25;2.95;;;9.80;99.90;;;;;;5067151;28;20048;-71
2023/01/06 07:24:22;;;;;;;7.90;2.90;;;9.80;99.90;;;;;;5047212;28;20118;-73
2023/01/06 07:26:48;;;;;;;5.43;2.60;;;9.80;99.90;;;;;;5069380;28;20055;-72
2023/01/06 07:29:14;;;;;;;5.03;3.00;;;9.80;99.90;;;;;;5073457;28;20051;-72
2023/01/06 07:31:40;;;;;;;5.93;2.97;;;9.80;99.90;;;;;;5055251;28;20067;-71
2023/01/06 07:34:05;;;;;;;6.07;2.70;;;9.80;99.90;;;;;;5062239;28;20056;-71
2023/01/06 07:36:31;;;;;;;5.32;1.90;;;9.80;99.90;;;;;;5059016;28;20509;-72
2023/01/06 07:38:57;;;;;;;7.22;2.10;;;9.80;99.90;;;;;;5044143;28;20139;-71
2023/01/06 07:41:23;;;;;;;8.82;2.40;;;9.80;99.90;;;;;;5071073;28;20040;-71
2023/01/06 07:43:48;;;;;;;8.20;2.05;;;9.70;99.90;;;;;;5051585;28;20146;-72
2023/01/06 07:46:14;;;;;;;9.15;2.35;;;9.80;99.90;;;;;;5037870;28;20044;-71
2023/01/06 07:48:40;;;;;;;7.70;1.80;;;9.70;99.90;;;;;;5044106;28;20637;-72
2023/01/06 07:51:06;;;;;;;7.80;1.40;;;9.60;99.90;;;;;;5057188;28;20060;-73
2023/01/06 07:53:31;;;;;;;8.68;1.45;;;9.50;99.90;;;;;;5053986;28;20055;-73
2023/01/06 07:55:57;;;;;;;6.20;1.30;;;9.50;99.90;;;;;;5052273;28;20090;-73
2023/01/06 07:58:23;;;;;;;9.70;1.45;;;9.40;99.90;;;;;;5032761;28;20044;-73
2023/01/06 08:00:49;;;;;;;9.43;1.77;;;9.40;99.90;;;;;;5067544;28;20044;-73
2023/01/06 08:03:15;;;;;;;8.50;1.38;;;9.30;99.90;;;;;;5071499;28;20072;-73
2023/01/06 08:05:41;;;;;;;5.60;1.05;;;9.30;99.90;;;;;;5040933;28;20493;-72
2023/01/06 08:08:11;;;;;;;6.10;1.10;;;9.20;99.90;;;;;;5042634;28;20492;-72
2023/01/06 08:10:41;;;;;;;8.05;1.20;;;9.20;99.90;;;;;;5055633;28;20052;-72
2023/01/06 08:13:07;;;;;;;9.25;1.67;;;9.50;99.90;;;;;;5068768;28;20056;-72
2023/01/06 08:15:35;;;;;;;5.03;1.35;;;9.00;99.90;;;;;;5050584;28;20091;-72
2023/01/06 08:18:01;;;;;;;6.20;1.08;;;9.00;99.90;;;;;;5068074;28;20076;-70
2023/01/06 08:20:27;;;;;;;12.20;1.35;;;8.90;99.90;;;;;;5038052;28;20148;-72
2023/01/06 08:22:53;;;;;;;7.72;1.10;;;8.90;99.90;;;;;;5060414;28;20149;-73
2023/01/06 08:25:19;;;;;;;9.30;1.35;;;8.80;99.90;;;;;;5056918;28;20072;-72
2023/01/06 08:27:45;;;;;;;6.88;1.05;;;8.80;99.90;;;;;;5067702;28;20047;-72
2023/01/06 08:30:11;;;;;;;8.27;1.38;;;8.80;99.90;;;;;;5065054;28;20048;-72
2023/01/06 08:32:36;;;;;;;7.05;1.10;;;8.70;99.90;;;;;;5066547;28;20105;-73
2023/01/06 08:35:03;;;;;;;7.78;1.15;;;8.70;99.90;;;;;;5071641;28;20035;-72
2023/01/06 08:37:29;;;;;;;9.57;1.80;;;8.70;99.90;;;;;;5068375;28;20138;-72
2023/01/06 08:39:55;;;;;;;7.28;1.25;;;8.60;99.90;;;;;;5056997;28;20615;-72
2023/01/06 08:42:20;;;;;;;6.85;1.17;;;8.60;99.90;;;;;;5070097;28;20048;-73
2023/01/06 08:44:46;;;;;;;7.85;1.13;;;8.60;99.90;;;;;;5049875;28;20082;-73
2023/01/06 08:47:12;;;;;;;7.57;1.20;;;8.60;99.90;;;;;;5051967;28;20056;-74
2023/01/06 08:49:41;;;;;;;11.38;1.23;;;8.60;99.90;;;;;;5036470;28;20217;-73
2023/01/06 08:52:07;;;;;;;7.82;1.30;;;8.60;99.90;;;;;;5030149;28;20059;-73
2023/01/06 08:54:33;;;;;;;7.72;1.15;;;8.80;99.90;;;;;;5051259;28;20047;-74
2023/01/06 08:56:59;;;;;;;9.02;1.23;;;8.50;99.90;;;;;;5039278;28;20713;-73
2023/01/06 08:59:24;;;;;;;10.77;1.45;;;8.50;99.90;;;;;;5048146;28;20174;-73
2023/01/06 09:01:50;;;;;;;12.55;1.50;;;8.40;99.90;;;;;;5048983;28;20105;-73
2023/01/06 09:04:16;;;;;;;9.88;1.60;;;8.40;99.90;;;;;;5070468;28;20045;-73
2023/01/06 09:06:43;;;;;;;8.20;1.35;;;8.40;99.90;;;;;;5049301;28;20051;-73
2023/01/06 09:09:10;;;;;;;10.95;1.40;;;8.70;99.90;;;;;;5039483;28;20102;-74
2023/01/06 09:11:39;;;;;;;15.50;1.92;;;8.40;99.90;;;;;;5045173;28;20051;-73
2023/01/06 09:14:06;;;;;;;10.75;1.45;;;8.40;99.90;;;;;;5051777;28;20080;-73
2023/01/06 09:16:32;;;;;;;11.52;1.73;;;8.40;99.90;;;;;;5045212;28;20036;-72
2023/01/06 09:18:57;;;;;;;11.50;1.77;;;8.40;99.90;;;;;;5032821;28;20051;-73
2023/01/06 09:21:24;;;;;;;18.45;1.70;;;8.30;99.90;;;;;;5068267;28;20046;-72
2023/01/06 09:23:50;;;;;;;11.63;2.10;;;8.30;99.90;;;;;;5064441;28;20049;-73
2023/01/06 09:26:18;;;;;;;12.07;1.65;;;8.30;99.90;;;;;;5038626;28;20098;-72
2023/01/06 09:28:44;;;;;;;8.35;1.20;;;8.30;99.90;;;;;;5035411;28;20052;-72
2023/01/06 09:31:10;;;;;;;9.00;1.50;;;8.30;99.90;;;;;;5061616;28;20028;-72
2023/01/06 09:33:35;;;;;;;14.35;1.58;;;8.30;99.90;;;;;;5056328;28;20055;-73
2023/01/06 09:36:01;;;;;;;13.93;1.60;;;8.30;99.90;;;;;;5036699;28;20044;-73
2023/01/06 09:38:27;;;;;;;13.38;2.10;;;8.30;99.90;;;;;;5059151;28;20508;-73
2023/01/06 09:41:14;;;;;;;9.90;1.35;;;8.40;99.90;;;;;;5034843;28;20437;-73
2023/01/06 09:43:49;;;;;;;17.55;1.70;;;8.40;99.90;;;;;;5042354;28;21461;-73
2023/01/06 09:46:19;;;;;;;13.75;1.38;;;8.40;99.90;;;;;;5068540;28;20788;-74
2023/01/06 09:49:07;;;;;;;17.15;1.60;;;8.40;99.90;;;;;;5040077;28;20052;-74
2023/01/06 09:51:35;;;;;;;15.25;1.73;;;8.40;99.90;;;;;;5051688;28;20048;-73
2023/01/06 09:54:23;;;;;;;19.08;2.55;;;8.40;99.90;;;;;;5035898;28;20131;-73
2023/01/06 09:56:55;;;;;;;21.05;1.70;;;8.50;99.90;;;;;;5073215;28;21609;-72
2023/01/06 09:59:33;;;;;;;9.95;1.70;;;8.50;99.90;;;;;;5047061;28;20066;-72
2023/01/06 10:02:00;;;;;;;16.38;2.05;;;8.40;99.90;;;;;;5041226;28;20483;-73
2023/01/06 10:04:28;;;;;;;15.77;2.13;;;8.50;99.90;;;;;;5069839;28;20114;-73
2023/01/06 10:07:33;;;;;;;15.68;2.13;;;8.50;99.90;;;;;;5065548;28;20079;-73
2023/01/06 10:10:16;;;;;;;13.05;1.85;;;8.50;99.90;;;;;;5021825;28;20167;-72
2023/01/06 10:12:51;;;;;;;13.18;1.42;;;8.50;99.90;;;;;;5023360;28;20128;-72
2023/01/06 10:15:39;;;;;;;18.67;2.00;;;8.50;99.90;;;;;;5039790;28;20048;-72
2023/01/06 10:18:23;;;;;;;10.23;1.40;;;8.60;99.90;;;;;;5065565;28;20048;-72
2023/01/06 10:20:59;;;;;;;15.23;1.80;;;8.60;99.90;;;;;;5032470;28;20044;-72
2023/01/06 10:24:00;;;;;;;14.68;1.60;;;9.00;99.90;;;;;;5052581;28;20061;-73
2023/01/06 10:26:30;;;;;;;11.73;1.40;;;8.70;99.90;;;;;;5037859;28;20130;-72
2023/01/06 10:29:11;;;;;;;13.73;1.67;;;8.70;99.90;;;;;;5048059;28;20055;-72
2023/01/06 10:31:40;;;;;;;10.80;1.58;;;8.70;99.90;;;;;;5048244;28;20041;-73
2023/01/06 10:34:22;;;;;;;16.25;2.78;;;8.80;99.90;;;;;;5049402;28;20421;-73
2023/01/06 10:36:55;;;;;;;13.45;1.50;;;8.80;99.90;;;;;;5035104;28;20072;-73
2023/01/06 10:39:24;;;;;;;13.18;1.55;;;8.80;99.90;;;;;;5048038;28;20082;-73
2023/01/06 10:45:11;;;;;;;8.07;1.40;;;8.80;99.90;;;;;;5057717;28;20056;-73
2023/01/06 10:47:40;;;;;;;15.90;1.92;;;8.90;99.90;;;;;;5046416;28;20048;-73
2023/01/06 10:50:10;;;;;;;9.10;1.45;;;8.90;99.90;;;;;;5035959;28;20044;-73
2023/01/06 10:52:37;;;;;;;8.88;1.48;;;8.90;99.90;;;;;;5057654;28;20055;-72
2023/01/06 10:55:04;;;;;;;10.00;1.13;;;8.90;99.90;;;;;;5055314;28;20115;-72
2023/01/06 10:57:37;;;;;;;8.68;1.17;;;8.90;99.90;;;;;;5051302;28;20044;-71
2023/01/06 11:00:14;;;;;;;11.85;1.45;;;8.90;99.90;;;;;;5053212;28;20125;-71
2023/01/06 11:02:52;;;;;;;16.55;1.90;;;8.90;99.90;;;;;;5026920;28;20082;-73
2023/01/06 11:05:27;;;;;;;9.82;1.60;;;8.90;99.90;;;;;;5048276;28;20043;-72
2023/01/06 11:08:02;;;;;;;15.38;1.58;;;8.90;99.90;;;;;;5045995;28;20052;-73
2023/01/06 11:10:37;;;;;;;12.00;2.08;;;9.00;99.90;;;;;;5039757;28;20105;-71
2023/01/06 11:13:05;;;;;;;11.68;1.67;;;9.00;99.90;;;;;;5042259;28;20067;-73
2023/01/06 11:15:41;;;;;;;14.30;1.80;;;9.00;99.90;;;;;;5045027;28;20052;-73
2023/01/06 11:18:28;;;;;;;9.98;1.35;;;9.00;99.90;;;;;;5042840;28;20048;-72
2023/01/06 11:21:01;;;;;;;17.98;1.60;;;9.00;99.90;;;;;;5028530;28;20105;-72
2023/01/06 11:23:28;;;;;;;11.52;1.40;;;9.00;99.90;;;;;;5028663;28;20058;-72
2023/01/06 11:26:13;;;;;;;14.82;3.13;;;9.00;99.90;;;;;;5031840;28;20067;-72
2023/01/06 11:28:44;;;;;;;17.25;3.22;;;9.10;99.90;;;;;;5022222;28;20075;-72
2023/01/06 11:31:18;;;;;;;17.00;3.10;;;9.10;99.90;;;;;;5034967;28;20068;-72
2023/01/06 11:33:47;;;;;;;14.73;3.00;;;9.10;99.90;;;;;;5056580;28;20035;-72
2023/01/06 11:36:15;;;;;;;13.10;1.75;;;9.10;99.90;;;;;;5051155;28;20757;-72
2023/01/06 11:38:47;;;;;;;14.02;1.90;;;9.20;99.90;;;;;;5029576;28;20067;-72
2023/01/06 11:41:39;;;;;;;11.32;1.35;;;9.20;99.90;;;;;;5035714;28;20620;-72
2023/01/06 11:44:27;;;;;;;19.80;1.73;;;9.20;99.90;;;;;;5035776;28;20566;-72
2023/01/06 11:47:15;;;;;;;14.52;2.17;;;9.20;99.90;;;;;;5055458;28;20515;-72
2023/01/06 11:49:51;;;;;;;11.88;1.63;;;9.30;99.90;;;;;;5059418;28;20134;-72
2023/01/06 11:52:16;;;;;;;13.98;1.67;;;9.30;99.90;;;;;;5028662;28;20833;-72
2023/01/06 11:54:43;;;;;;;13.68;2.25;;;9.20;99.90;;;;;;5047481;28;20041;-73
2023/01/06 11:57:19;;;;;;;14.05;1.92;;;9.30;99.90;;;;;;5020013;28;20052;-72
2023/01/06 11:59:45;;;;;;;17.58;1.63;;;9.30;99.90;;;;;;5025986;28;20484;-73
2023/01/06 12:02:21;;;;;;;13.77;1.42;;;9.30;99.90;;;;;;5028099;28;20043;-73
2023/01/06 12:04:51;;;;;;;12.05;2.50;;;9.30;99.90;;;;;;5045003;28;20100;-70
2023/01/06 12:07:37;;;;;;;10.15;1.58;;;9.30;99.90;;;;;;5046509;28;20370;-72
2023/01/06 12:10:18;;;;;;;11.23;1.80;;;9.40;99.90;;;;;;5047363;28;20052;-73
2023/01/06 12:12:44;;;;;;;10.18;1.60;;;9.30;99.90;;;;;;5056607;28;20059;-72
2023/01/06 12:15:16;;;;;;;16.42;1.98;;;9.40;99.90;;;;;;5046138;28;20513;-72
2023/01/06 12:18:23;;;;;;;15.82;2.15;;;9.40;99.90;;;;;;5053539;28;20058;-72
2023/01/06 12:20:51;;;;;;;13.38;2.00;;;9.40;99.90;;;;;;5049784;28;20090;-72
2023/01/06 12:23:25;;;;;;;7.90;1.42;;;9.40;99.90;;;;;;5066745;28;20043;-73
2023/01/06 12:25:55;;;;;;;10.40;1.67;;;9.40;99.90;;;;;;5047884;28;20066;-72
2023/01/06 12:28:28;;;;;;;14.38;1.63;;;9.70;99.90;;;;;;5049129;28;20135;-72
2023/01/06 12:31:27;;;;;;;11.20;2.10;;;9.30;99.90;;;;;;5032082;28;20044;-72
2023/01/06 12:34:05;;;;;;;14.18;1.52;;;9.30;99.90;;;;;;5031033;28;20629;-73
2023/01/06 12:36:48;;;;;;;11.77;1.75;;;9.30;99.90;;;;;;5063870;28;20904;-73
2023/01/06 12:39:59;;;;;;;15.68;2.20;;;9.30;99.90;;;;;;5033973;28;20134;-73
2023/01/06 12:42:42;;;;;;;17.83;1.77;;;9.30;99.90;;;;;;5001862;28;20104;-74
2023/01/06 12:45:16;;;;;;;16.40;1.90;;;9.20;99.90;;;;;;5000416;28;20037;-72
2023/01/06 12:48:04;;;;;;;13.02;1.85;;;9.20;99.90;;;;;;5016082;28;20660;-73
2023/01/06 12:50:42;;;;;;;14.50;1.70;;;9.20;99.90;;;;;;5045628;28;20523;-73
2023/01/06 12:53:27;;;;;;;16.38;1.83;;;9.20;99.90;;;;;;5052415;28;20071;-73
2023/01/06 12:56:02;;;;;;;12.07;1.88;;;9.20;99.90;;;;;;5060955;28;20044;-73
2023/01/06 12:58:36;;;;;;;15.05;1.83;;;9.20;99.90;;;;;;5049466;28;20045;-73
2023/01/06 13:01:30;;;;;;;12.02;1.60;;;9.20;99.90;;;;;;5034851;28;20036;-73
2023/01/06 13:04:20;;;;;;;16.05;2.42;;;9.20;99.90;;;;;;5039206;28;20056;-73
2023/01/06 13:06:55;;;;;;;14.80;2.17;;;9.20;99.90;;;;;;5049423;28;20387;-72
2023/01/06 13:09:53;;;;;;;12.32;1.52;;;9.20;99.90;;;;;;5066778;28;20530;-73
2023/01/06 13:12:22;;;;;;;15.20;1.88;;;9.20;99.90;;;;;;5050786;28;20557;-73
2023/01/06 13:15:00;;;;;;;13.85;2.00;;;9.20;99.90;;;;;;5037910;28;20042;-73